sensor_id;sensor_type;location;lat;lon;timestamp;pressure;altitude;pressure_sealevel;temperature;humidity
25610;BME280;13479;49.044;8.716;2024-03-25T00:00:14;98253.88;;;7.10;70.82
25610;BME280;13479;49.044;8.716;2024-03-25T00:02:41;98239.69;;;7.33;70.47
25610;BME280;13479;49.044;8.716;2024-03-25T00:05:07;98274.09;;;7.21;69.95
25610;BME280;13479;49.044;8.716;2024-03-25T00:07:36;98258.44;;;7.08;70.79
25610;BME280;13479;49.044;8.716;2024-03-25T00:10:02;98239.25;;;7.28;70.33
25610;BME280;13479;49.044;8.716;2024-03-25T00:12:28;98269.72;;;7.10;70.49
25610;BME280;13479;49.044;8.716;2024-03-25T00:14:54;98262.75;;;7.09;70.34
25610;BME280;13479;49.044;8.716;2024-03-25T00:17:19;98229.94;;;7.02;71.29
25610;BME280;13479;49.044;8.716;2024-03-25T00:19:47;98206.00;;;6.94;71.64
25610;BME280;13479;49.044;8.716;2024-03-25T00:22:16;98196.72;;;7.00;71.20
25610;BME280;13479;49.044;8.716;2024-03-25T00:24:42;98182.63;;;6.89;71.14
25610;BME280;13479;49.044;8.716;2024-03-25T00:27:07;98179.59;;;6.94;71.29
25610;BME280;13479;49.044;8.716;2024-03-25T00:29:32;98217.66;;;6.91;71.40
25610;BME280;13479;49.044;8.716;2024-03-25T00:31:58;98199.88;;;6.93;71.39
25610;BME280;13479;49.044;8.716;2024-03-25T00:34:24;98199.25;;;7.01;71.13
25610;BME280;13479;49.044;8.716;2024-03-25T00:36:49;98231.88;;;7.00;71.23
25610;BME280;13479;49.044;8.716;2024-03-25T00:39:14;98228.00;;;7.04;70.65
25610;BME280;13479;49.044;8.716;2024-03-25T00:41:39;98220.41;;;6.90;71.33
25610;BME280;13479;49.044;8.716;2024-03-25T00:44:05;98195.34;;;7.05;71.27
25610;BME280;13479;49.044;8.716;2024-03-25T00:46:30;98212.31;;;7.03;71.53
25610;BME280;13479;49.044;8.716;2024-03-25T00:48:55;98213.22;;;6.92;71.46
25610;BME280;13479;49.044;8.716;2024-03-25T00:51:21;98209.09;;;6.99;71.31
25610;BME280;13479;49.044;8.716;2024-03-25T00:53:46;98220.47;;;7.00;71.33
25610;BME280;13479;49.044;8.716;2024-03-25T00:56:12;98233.94;;;6.97;71.29
25610;BME280;13479;49.044;8.716;2024-03-25T00:58:37;98262.53;;;7.13;70.67
25610;BME280;13479;49.044;8.716;2024-03-25T01:01:02;98287.25;;;7.11;70.68
25610;BME280;13479;49.044;8.716;2024-03-25T01:03:28;98286.34;;;7.01;71.13
25610;BME280;13479;49.044;8.716;2024-03-25T01:05:54;98265.34;;;7.00;71.03
25610;BME280;13479;49.044;8.716;2024-03-25T01:08:19;98244.34;;;6.98;71.00
25610;BME280;13479;49.044;8.716;2024-03-25T01:10:45;98259.88;;;7.13;70.78
25610;BME280;13479;49.044;8.716;2024-03-25T01:13:10;98263.97;;;7.05;70.47
25610;BME280;13479;49.044;8.716;2024-03-25T01:15:35;98258.13;;;7.02;71.00
25610;BME280;13479;49.044;8.716;2024-03-25T01:18:01;98266.38;;;7.08;71.00
25610;BME280;13479;49.044;8.716;2024-03-25T05:00:25;98145.56;;;6.48;72.88
25610;BME280;13479;49.044;8.716;2024-03-25T05:02:50;98142.88;;;6.39;72.69
25610;BME280;13479;49.044;8.716;2024-03-25T05:05:16;98128.75;;;6.40;73.27
25610;BME280;13479;49.044;8.716;2024-03-25T05:07:41;98116.19;;;6.32;73.28
25610;BME280;13479;49.044;8.716;2024-03-25T05:10:06;98122.03;;;6.36;73.46
25610;BME280;13479;49.044;8.716;2024-03-25T05:12:32;98146.16;;;6.31;73.54
25610;BME280;13479;49.044;8.716;2024-03-25T05:14:57;98133.03;;;6.20;74.13
25610;BME280;13479;49.044;8.716;2024-03-25T05:17:22;98134.03;;;6.07;74.19
25610;BME280;13479;49.044;8.716;2024-03-25T05:19:47;98139.16;;;5.97;74.08
25610;BME280;13479;49.044;8.716;2024-03-25T05:22:13;98144.13;;;6.02;73.99
25610;BME280;13479;49.044;8.716;2024-03-25T05:24:38;98126.69;;;5.78;75.01
25610;BME280;13479;49.044;8.716;2024-03-25T05:27:03;98130.72;;;5.82;74.45
25610;BME280;13479;49.044;8.716;2024-03-25T05:29:29;98131.31;;;5.75;75.12
25610;BME280;13479;49.044;8.716;2024-03-25T05:31:59;98131.56;;;5.83;75.57
25610;BME280;13479;49.044;8.716;2024-03-25T05:34:25;98142.50;;;5.67;75.22
25610;BME280;13479;49.044;8.716;2024-03-25T05:36:50;98148.47;;;5.69;75.74
25610;BME280;13479;49.044;8.716;2024-03-25T05:39:16;98160.81;;;5.68;75.94
25610;BME280;13479;49.044;8.716;2024-03-25T05:41:41;98177.78;;;5.64;75.99
25610;BME280;13479;49.044;8.716;2024-03-25T05:44:06;98170.38;;;5.58;76.53
25610;BME280;13479;49.044;8.716;2024-03-25T05:46:32;98185.59;;;5.54;76.83
25610;BME280;13479;49.044;8.716;2024-03-25T05:49:01;98179.72;;;5.74;76.96
25610;BME280;13479;49.044;8.716;2024-03-25T05:51:26;98199.69;;;5.76;76.79
25610;BME280;13479;49.044;8.716;2024-03-25T05:53:51;98212.34;;;6.05;76.36
25610;BME280;13479;49.044;8.716;2024-03-25T05:56:17;98227.09;;;6.94;75.79
25610;BME280;13479;49.044;8.716;2024-03-25T05:58:42;98349.38;;;8.10;72.87
25610;BME280;13479;49.044;8.716;2024-03-25T06:01:07;98506.25;;;9.23;69.26
25610;BME280;13479;49.044;8.716;2024-03-25T06:03:32;98492.69;;;10.44;65.47
25610;BME280;13479;49.044;8.716;2024-03-25T06:05:58;98405.91;;;11.55;61.64
25610;BME280;13479;49.044;8.716;2024-03-25T06:08:23;98342.19;;;12.67;56.98
25610;BME280;13479;49.044;8.716;2024-03-25T06:10:51;98290.78;;;13.57;53.61
25610;BME280;13479;49.044;8.716;2024-03-25T06:13:17;98300.13;;;14.49;49.42
25610;BME280;13479;49.044;8.716;2024-03-25T06:15:42;98283.75;;;15.46;48.41
25610;BME280;13479;49.044;8.716;2024-03-25T06:18:07;98294.09;;;16.39;46.58
25610;BME280;13479;49.044;8.716;2024-03-25T06:20:33;98311.47;;;17.23;42.97
25610;BME280;13479;49.044;8.716;2024-03-25T06:22:58;98314.09;;;17.95;41.17
25610;BME280;13479;49.044;8.716;2024-03-25T06:25:23;98324.44;;;18.88;39.51
25610;BME280;13479;49.044;8.716;2024-03-25T06:27:48;98327.00;;;19.57;38.19
25610;BME280;13479;49.044;8.716;2024-03-25T06:30:14;98347.63;;;20.37;36.53
25610;BME280;13479;49.044;8.716;2024-03-25T06:32:57;98356.00;;;21.13;34.76
25610;BME280;13479;49.044;8.716;2024-03-25T06:35:45;98356.47;;;21.67;33.10
25610;BME280;13479;49.044;8.716;2024-03-25T06:38:10;98360.00;;;22.12;31.99
25610;BME280;13479;49.044;8.716;2024-03-25T06:40:37;98349.28;;;22.61;31.64
25610;BME280;13479;49.044;8.716;2024-03-25T06:43:03;98350.19;;;23.16;30.72
25610;BME280;13479;49.044;8.716;2024-03-25T06:45:28;98361.75;;;23.77;29.38
25610;BME280;13479;49.044;8.716;2024-03-25T06:47:54;98366.59;;;24.46;28.81
25610;BME280;13479;49.044;8.716;2024-03-25T06:50:19;98368.47;;;24.98;27.69
25610;BME280;13479;49.044;8.716;2024-03-25T06:52:45;98373.34;;;25.13;27.06
25610;BME280;13479;49.044;8.716;2024-03-25T06:55:10;98378.31;;;25.34;26.56
25610;BME280;13479;49.044;8.716;2024-03-25T06:57:35;98384.94;;;25.38;26.24
25610;BME280;13479;49.044;8.716;2024-03-25T07:00:00;98385.16;;;25.65;26.16
25610;BME280;13479;49.044;8.716;2024-03-25T07:02:26;98380.63;;;25.88;25.63
25610;BME280;13479;49.044;8.716;2024-03-25T07:04:51;98386.06;;;25.71;25.31
25610;BME280;13479;49.044;8.716;2024-03-25T07:07:16;98385.16;;;25.82;25.55
25610;BME280;13479;49.044;8.716;2024-03-25T07:09:41;98386.50;;;26.36;24.95
25610;BME280;13479;49.044;8.716;2024-03-25T07:12:07;98384.63;;;26.81;24.71
25610;BME280;13479;49.044;8.716;2024-03-25T07:14:32;98388.06;;;27.48;24.09
25610;BME280;13479;49.044;8.716;2024-03-25T07:16:58;98378.91;;;27.97;22.83
25610;BME280;13479;49.044;8.716;2024-03-25T07:19:23;98375.34;;;27.92;23.25
25610;BME280;13479;49.044;8.716;2024-03-25T07:21:48;98383.50;;;28.34;22.32
25610;BME280;13479;49.044;8.716;2024-03-25T07:24:13;98381.63;;;28.40;22.07
25610;BME280;13479;49.044;8.716;2024-03-25T07:26:39;98382.16;;;28.95;21.73
25610;BME280;13479;49.044;8.716;2024-03-25T07:29:04;98379.97;;;28.87;21.52
25610;BME280;13479;49.044;8.716;2024-03-25T07:31:29;98380.81;;;29.08;21.07
25610;BME280;13479;49.044;8.716;2024-03-25T07:33:54;98379.56;;;29.52;20.62
25610;BME280;13479;49.044;8.716;2024-03-25T07:36:20;98384.47;;;29.40;21.21
25610;BME280;13479;49.044;8.716;2024-03-25T07:38:45;98379.00;;;29.61;21.04
25610;BME280;13479;49.044;8.716;2024-03-25T07:41:10;98379.22;;;30.21;20.50
25610;BME280;13479;49.044;8.716;2024-03-25T07:43:36;98373.38;;;30.48;20.10
25610;BME280;13479;49.044;8.716;2024-03-25T07:46:01;98386.06;;;30.34;20.03
25610;BME280;13479;49.044;8.716;2024-03-25T07:48:26;98383.34;;;30.13;19.93
25610;BME280;13479;49.044;8.716;2024-03-25T07:50:52;98378.13;;;29.13;20.57
25610;BME280;13479;49.044;8.716;2024-03-25T07:53:17;98381.94;;;29.12;20.74
25610;BME280;13479;49.044;8.716;2024-03-25T07:55:42;98372.97;;;29.58;20.26
25610;BME280;13479;49.044;8.716;2024-03-25T07:58:07;98386.66;;;29.95;19.89
25610;BME280;13479;49.044;8.716;2024-03-25T08:00:33;98375.69;;;30.20;19.75
25610;BME280;13479;49.044;8.716;2024-03-25T08:02:59;98381.69;;;30.17;19.63
25610;BME280;13479;49.044;8.716;2024-03-25T08:05:24;98369.69;;;29.67;20.11
25610;BME280;13479;49.044;8.716;2024-03-25T08:07:50;98371.75;;;30.53;19.49
25610;BME280;13479;49.044;8.716;2024-03-25T08:10:15;98377.00;;;31.04;18.67
25610;BME280;13479;49.044;8.716;2024-03-25T08:12:40;98378.19;;;31.38;18.45
25610;BME280;13479;49.044;8.716;2024-03-25T08:15:06;98368.56;;;32.04;18.35
25610;BME280;13479;49.044;8.716;2024-03-25T08:17:31;98378.16;;;32.37;17.56
25610;BME280;13479;49.044;8.716;2024-03-25T08:19:56;98371.88;;;32.55;17.56
25610;BME280;13479;49.044;8.716;2024-03-25T08:22:21;98373.59;;;33.14;17.39
25610;BME280;13479;49.044;8.716;2024-03-25T08:24:47;98368.63;;;33.54;16.83
25610;BME280;13479;49.044;8.716;2024-03-25T08:27:12;98370.72;;;34.65;16.20
25610;BME280;13479;49.044;8.716;2024-03-25T08:29:37;98360.00;;;34.77;14.96
25610;BME280;13479;49.044;8.716;2024-03-25T08:32:03;98359.38;;;34.39;14.96
25610;BME280;13479;49.044;8.716;2024-03-25T08:34:28;98365.75;;;34.53;14.78
25610;BME280;13479;49.044;8.716;2024-03-25T08:36:53;98364.59;;;34.68;14.54
25610;BME280;13479;49.044;8.716;2024-03-25T08:39:19;98363.34;;;35.02;15.14
25610;BME280;13479;49.044;8.716;2024-03-25T08:41:44;98369.03;;;35.43;14.94
25610;BME280;13479;49.044;8.716;2024-03-25T08:44:09;98362.84;;;35.91;14.32
25610;BME280;13479;49.044;8.716;2024-03-25T08:46:34;98353.44;;;35.92;13.74
25610;BME280;13479;49.044;8.716;2024-03-25T08:49:00;98357.63;;;36.21;13.82
25610;BME280;13479;49.044;8.716;2024-03-25T08:51:25;98353.75;;;36.13;13.47
25610;BME280;13479;49.044;8.716;2024-03-25T08:53:51;98347.47;;;35.45;14.02
25610;BME280;13479;49.044;8.716;2024-03-25T08:56:16;98356.63;;;34.80;14.50
25610;BME280;13479;49.044;8.716;2024-03-25T08:58:41;98350.75;;;34.45;14.27
25610;BME280;13479;49.044;8.716;2024-03-25T09:01:06;98352.84;;;34.07;14.96
25610;BME280;13479;49.044;8.716;2024-03-25T09:03:34;98354.88;;;34.29;14.36
25610;BME280;13479;49.044;8.716;2024-03-25T09:05:59;98358.91;;;34.51;14.20
25610;BME280;13479;49.044;8.716;2024-03-25T09:08:24;98348.78;;;34.32;14.78
25610;BME280;13479;49.044;8.716;2024-03-25T09:10:49;98346.94;;;34.69;14.22
25610;BME280;13479;49.044;8.716;2024-03-25T09:13:32;98347.34;;;34.34;14.26
25610;BME280;13479;49.044;8.716;2024-03-25T09:15:57;98347.94;;;34.17;13.84
25610;BME280;13479;49.044;8.716;2024-03-25T09:18:23;98334.81;;;34.28;13.35
25610;BME280;13479;49.044;8.716;2024-03-25T09:20:48;98329.22;;;32.39;14.96
25610;BME280;13479;49.044;8.716;2024-03-25T09:23:13;98326.03;;;31.78;15.16
25610;BME280;13479;49.044;8.716;2024-03-25T09:25:39;98311.81;;;30.96;16.02
25610;BME280;13479;49.044;8.716;2024-03-25T09:28:04;98310.97;;;30.56;16.52
25610;BME280;13479;49.044;8.716;2024-03-25T09:30:29;98302.06;;;30.79;15.81
25610;BME280;13479;49.044;8.716;2024-03-25T09:32:54;98289.81;;;29.80;16.65
25610;BME280;13479;49.044;8.716;2024-03-25T09:35:20;98279.94;;;30.10;16.85
25610;BME280;13479;49.044;8.716;2024-03-25T09:37:46;98267.41;;;30.59;15.83
25610;BME280;13479;49.044;8.716;2024-03-25T09:40:11;98261.94;;;30.54;15.33
25610;BME280;13479;49.044;8.716;2024-03-25T09:45:08;98254.72;;;31.14;15.24
25610;BME280;13479;49.044;8.716;2024-03-25T09:47:33;98260.75;;;31.75;15.05
25610;BME280;13479;49.044;8.716;2024-03-25T09:49:59;98257.03;;;31.60;14.64
25610;BME280;13479;49.044;8.716;2024-03-25T09:52:24;98260.53;;;31.95;14.08
25610;BME280;13479;49.044;8.716;2024-03-25T09:54:49;98252.28;;;31.95;13.26
25610;BME280;13479;49.044;8.716;2024-03-25T09:57:15;98264.47;;;31.60;14.01
25610;BME280;13479;49.044;8.716;2024-03-25T09:59:41;98245.59;;;31.23;13.79
25610;BME280;13479;49.044;8.716;2024-03-25T10:02:08;98247.56;;;31.18;13.68
25610;BME280;13479;49.044;8.716;2024-03-25T10:04:39;98247.38;;;31.38;14.17
25610;BME280;13479;49.044;8.716;2024-03-25T10:07:08;98243.31;;;31.60;14.12
25610;BME280;13479;49.044;8.716;2024-03-25T10:09:33;98243.13;;;31.81;14.99
25610;BME280;13479;49.044;8.716;2024-03-25T10:11:59;98247.56;;;31.47;15.15
25610;BME280;13479;49.044;8.716;2024-03-25T10:14:24;98235.25;;;31.15;15.16
25610;BME280;13479;49.044;8.716;2024-03-25T10:16:49;98239.03;;;30.85;15.96
25610;BME280;13479;49.044;8.716;2024-03-25T10:19:14;98224.09;;;30.06;15.31
25610;BME280;13479;49.044;8.716;2024-03-25T10:21:40;98224.25;;;29.13;15.50
25610;BME280;13479;49.044;8.716;2024-03-25T10:24:05;98220.16;;;28.85;16.01
25610;BME280;13479;49.044;8.716;2024-03-25T10:26:33;98208.97;;;28.76;16.11
25610;BME280;13479;49.044;8.716;2024-03-25T10:29:05;98193.06;;;28.52;16.46
25610;BME280;13479;49.044;8.716;2024-03-25T10:31:31;98203.34;;;28.14;16.61
25610;BME280;13479;49.044;8.716;2024-03-25T10:33:57;98186.78;;;27.78;16.79
25610;BME280;13479;49.044;8.716;2024-03-25T10:36:23;98180.50;;;27.72;16.92
25610;BME280;13479;49.044;8.716;2024-03-25T10:38:56;98178.59;;;27.72;17.13
25610;BME280;13479;49.044;8.716;2024-03-25T10:41:22;98176.72;;;27.78;16.62
25610;BME280;13479;49.044;8.716;2024-03-25T10:43:51;98165.34;;;27.97;17.24
25610;BME280;13479;49.044;8.716;2024-03-25T10:46:19;98159.56;;;27.88;16.68
25610;BME280;13479;49.044;8.716;2024-03-25T10:48:54;98148.63;;;27.24;17.06
25610;BME280;13479;49.044;8.716;2024-03-25T10:51:24;98144.31;;;26.63;17.68
25610;BME280;13479;49.044;8.716;2024-03-25T10:53:52;98141.75;;;26.24;17.58
25610;BME280;13479;49.044;8.716;2024-03-25T10:56:20;98130.69;;;26.31;17.46
25610;BME280;13479;49.044;8.716;2024-03-25T10:58:47;98131.91;;;25.96;17.78
25610;BME280;13479;49.044;8.716;2024-03-25T11:01:13;98118.03;;;25.70;18.17
25610;BME280;13479;49.044;8.716;2024-03-25T11:03:40;98119.84;;;26.09;19.35
25610;BME280;13479;49.044;8.716;2024-03-25T11:06:05;98110.00;;;26.30;18.57
25610;BME280;13479;49.044;8.716;2024-03-25T11:08:31;98104.69;;;26.40;18.39
25610;BME280;13479;49.044;8.716;2024-03-25T11:10:57;98100.31;;;26.39;17.38
25610;BME280;13479;49.044;8.716;2024-03-25T11:13:23;98092.16;;;25.89;18.07
25610;BME280;13479;49.044;8.716;2024-03-25T11:15:48;98081.56;;;25.04;18.42
25610;BME280;13479;49.044;8.716;2024-03-25T11:18:15;98083.31;;;23.96;19.53
25610;BME280;13479;49.044;8.716;2024-03-25T11:20:44;98080.22;;;22.75;20.42
25610;BME280;13479;49.044;8.716;2024-03-25T11:25:36;98055.22;;;21.46;21.88
25610;BME280;13479;49.044;8.716;2024-03-25T11:28:01;98050.31;;;21.24;21.99
25610;BME280;13479;49.044;8.716;2024-03-25T11:30:27;98039.72;;;20.60;22.55
25610;BME280;13479;49.044;8.716;2024-03-25T11:32:53;98036.50;;;20.26;23.23
25610;BME280;13479;49.044;8.716;2024-03-25T11:35:19;98047.59;;;19.72;24.30
25610;BME280;13479;49.044;8.716;2024-03-25T11:37:45;98040.63;;;19.58;24.47
25610;BME280;13479;49.044;8.716;2024-03-25T11:40:11;98032.38;;;19.01;24.61
25610;BME280;13479;49.044;8.716;2024-03-25T11:42:44;98029.75;;;18.27;25.77
25610;BME280;13479;49.044;8.716;2024-03-25T11:45:20;98038.88;;;17.64;27.65
25610;BME280;13479;49.044;8.716;2024-03-25T11:47:47;98049.59;;;17.50;27.60
25610;BME280;13479;49.044;8.716;2024-03-25T11:50:15;98034.78;;;17.12;27.71
25610;BME280;13479;49.044;8.716;2024-03-25T11:52:41;98032.28;;;17.04;26.88
25610;BME280;13479;49.044;8.716;2024-03-25T11:55:07;98014.06;;;16.64;26.93
25610;BME280;13479;49.044;8.716;2024-03-25T11:57:37;98008.88;;;16.28;27.45
25610;BME280;13479;49.044;8.716;2024-03-25T12:00:03;97993.00;;;16.04;28.41
25610;BME280;13479;49.044;8.716;2024-03-25T12:02:31;97971.88;;;15.88;27.92
25610;BME280;13479;49.044;8.716;2024-03-25T12:04:56;97979.19;;;15.79;29.51
25610;BME280;13479;49.044;8.716;2024-03-25T12:07:22;97978.59;;;15.62;29.37
25610;BME280;13479;49.044;8.716;2024-03-25T12:09:47;97974.53;;;15.08;29.79
25610;BME280;13479;49.044;8.716;2024-03-25T12:12:32;97987.63;;;14.58;32.30
25610;BME280;13479;49.044;8.716;2024-03-25T12:14:57;97989.19;;;14.52;32.87
25610;BME280;13479;49.044;8.716;2024-03-25T12:17:23;97998.38;;;14.64;33.79
25610;BME280;13479;49.044;8.716;2024-03-25T12:20:05;97993.44;;;14.91;33.34
25610;BME280;13479;49.044;8.716;2024-03-25T12:22:33;97981.91;;;14.76;31.06
25610;BME280;13479;49.044;8.716;2024-03-25T12:25:00;97964.47;;;14.65;30.78
25610;BME280;13479;49.044;8.716;2024-03-25T12:27:27;97932.00;;;14.46;30.72
25610;BME280;13479;49.044;8.716;2024-03-25T12:30:05;97911.91;;;14.50;30.29
25610;BME280;13479;49.044;8.716;2024-03-25T12:35:11;97895.69;;;14.37;31.31
25610;BME280;13479;49.044;8.716;2024-03-25T12:37:38;97895.59;;;14.30;31.42
25610;BME280;13479;49.044;8.716;2024-03-25T12:40:05;97876.19;;;14.21;31.66
25610;BME280;13479;49.044;8.716;2024-03-25T12:42:32;97883.91;;;14.16;31.88
25610;BME280;13479;49.044;8.716;2024-03-25T12:44:58;97880.22;;;14.17;32.01
25610;BME280;13479;49.044;8.716;2024-03-25T12:47:23;97873.97;;;14.10;32.22
25610;BME280;13479;49.044;8.716;2024-03-25T12:49:48;97860.44;;;13.97;32.75
25610;BME280;13479;49.044;8.716;2024-03-25T12:52:13;97868.44;;;13.97;33.02
25610;BME280;13479;49.044;8.716;2024-03-25T12:54:39;97860.44;;;13.97;32.76
25610;BME280;13479;49.044;8.716;2024-03-25T12:57:06;97854.66;;;14.08;32.27
25610;BME280;13479;49.044;8.716;2024-03-25T12:59:31;97847.81;;;13.90;32.99
25610;BME280;13479;49.044;8.716;2024-03-25T13:01:57;97836.88;;;13.70;33.33
25610;BME280;13479;49.044;8.716;2024-03-25T13:04:22;97832.72;;;13.68;32.68
25610;BME280;13479;49.044;8.716;2024-03-25T13:06:47;97818.53;;;13.52;32.91
25610;BME280;13479;49.044;8.716;2024-03-25T13:09:12;97817.25;;;13.63;33.93
25610;BME280;13479;49.044;8.716;2024-03-25T13:11:38;97816.00;;;13.74;32.90
25610;BME280;13479;49.044;8.716;2024-03-25T13:14:04;97800.53;;;13.84;32.70
25610;BME280;13479;49.044;8.716;2024-03-25T13:16:32;97782.81;;;14.07;32.43
25610;BME280;13479;49.044;8.716;2024-03-25T13:18:57;97781.22;;;14.12;32.29
25610;BME280;13479;49.044;8.716;2024-03-25T13:21:22;97780.31;;;14.42;30.88
25610;BME280;13479;49.044;8.716;2024-03-25T13:23:47;97786.91;;;14.61;30.14
25610;BME280;13479;49.044;8.716;2024-03-25T13:26:13;97770.75;;;14.84;31.74
25610;BME280;13479;49.044;8.716;2024-03-25T13:28:38;97767.31;;;14.90;31.83
25610;BME280;13479;49.044;8.716;2024-03-25T13:31:03;97768.03;;;14.77;31.92
25610;BME280;13479;49.044;8.716;2024-03-25T13:33:30;97773.00;;;14.65;32.05
25610;BME280;13479;49.044;8.716;2024-03-25T13:35:55;97774.22;;;14.63;31.50
25610;BME280;13479;49.044;8.716;2024-03-25T13:38:21;97778.47;;;14.57;30.70
25610;BME280;13479;49.044;8.716;2024-03-25T13:40:46;97765.03;;;14.50;30.36
25610;BME280;13479;49.044;8.716;2024-03-25T13:43:11;97772.06;;;14.36;30.41
25610;BME280;13479;49.044;8.716;2024-03-25T13:45:46;97742.75;;;14.21;30.86
25610;BME280;13479;49.044;8.716;2024-03-25T13:48:12;97743.28;;;14.32;32.61
25610;BME280;13479;49.044;8.716;2024-03-25T13:50:37;97725.75;;;14.44;32.40
25610;BME280;13479;49.044;8.716;2024-03-25T13:53:02;97732.19;;;14.50;30.62
25610;BME280;13479;49.044;8.716;2024-03-25T13:55:27;97729.44;;;14.43;30.79
25610;BME280;13479;49.044;8.716;2024-03-25T13:57:53;97716.53;;;14.47;32.26
25610;BME280;13479;49.044;8.716;2024-03-25T14:00:18;97717.72;;;14.23;31.67
25610;BME280;13479;49.044;8.716;2024-03-25T14:02:43;97713.13;;;14.01;32.50
25610;BME280;13479;49.044;8.716;2024-03-25T14:05:09;97697.41;;;13.92;32.09
25610;BME280;13479;49.044;8.716;2024-03-25T14:07:34;97701.38;;;13.96;31.79
25610;BME280;13479;49.044;8.716;2024-03-25T14:09:59;97690.53;;;13.82;31.45
25610;BME280;13479;49.044;8.716;2024-03-25T14:12:24;97686.69;;;13.70;31.78
25610;BME280;13479;49.044;8.716;2024-03-25T14:14:50;97689.34;;;13.55;33.31
25610;BME280;13479;49.044;8.716;2024-03-25T14:17:15;97683.56;;;13.66;31.89
25610;BME280;13479;49.044;8.716;2024-03-25T14:19:40;97682.09;;;13.64;30.77
25610;BME280;13479;49.044;8.716;2024-03-25T14:22:07;97681.09;;;13.50;31.12
25610;BME280;13479;49.044;8.716;2024-03-25T14:24:32;97686.59;;;13.48;31.19
25610;BME280;13479;49.044;8.716;2024-03-25T14:26:57;97673.22;;;13.33;31.45
25610;BME280;13479;49.044;8.716;2024-03-25T14:29:23;97658.44;;;13.31;33.10
25610;BME280;13479;49.044;8.716;2024-03-25T14:31:48;97658.22;;;13.55;32.63
25610;BME280;13479;49.044;8.716;2024-03-25T14:34:13;97658.56;;;13.52;33.23
25610;BME280;13479;49.044;8.716;2024-03-25T14:36:38;97653.69;;;13.41;32.86
25610;BME280;13479;49.044;8.716;2024-03-25T14:39:04;97635.94;;;13.33;33.33
25610;BME280;13479;49.044;8.716;2024-03-25T14:41:38;97635.56;;;13.21;32.67
25610;BME280;13479;49.044;8.716;2024-03-25T14:44:03;97627.47;;;13.29;33.39
25610;BME280;13479;49.044;8.716;2024-03-25T14:46:29;97617.81;;;13.28;33.22
25610;BME280;13479;49.044;8.716;2024-03-25T14:48:54;97610.50;;;13.46;33.26
25610;BME280;13479;49.044;8.716;2024-03-25T14:51:19;97602.13;;;13.34;33.28
25610;BME280;13479;49.044;8.716;2024-03-25T14:53:45;97616.28;;;13.49;33.70
25610;BME280;13479;49.044;8.716;2024-03-25T14:56:10;97605.53;;;13.42;34.64
25610;BME280;13479;49.044;8.716;2024-03-25T14:58:35;97614.63;;;13.48;34.13
25610;BME280;13479;49.044;8.716;2024-03-25T15:01:00;97611.69;;;13.43;34.20
25610;BME280;13479;49.044;8.716;2024-03-25T15:03:25;97596.88;;;13.25;34.21
25610;BME280;13479;49.044;8.716;2024-03-25T15:05:51;97588.22;;;13.23;33.88
25610;BME280;13479;49.044;8.716;2024-03-25T15:08:16;97590.97;;;13.30;34.03
25610;BME280;13479;49.044;8.716;2024-03-25T15:10:41;97582.81;;;13.32;33.97
25610;BME280;13479;49.044;8.716;2024-03-25T15:13:07;97585.66;;;13.30;34.45
25610;BME280;13479;49.044;8.716;2024-03-25T15:15:32;97582.25;;;13.36;33.47
25610;BME280;13479;49.044;8.716;2024-03-25T15:18:00;97580.88;;;13.40;34.35
25610;BME280;13479;49.044;8.716;2024-03-25T15:20:26;97572.41;;;13.37;33.96
25610;BME280;13479;49.044;8.716;2024-03-25T15:22:51;97567.03;;;13.45;33.29
25610;BME280;13479;49.044;8.716;2024-03-25T15:25:16;97571.41;;;13.38;33.27
25610;BME280;13479;49.044;8.716;2024-03-25T15:27:41;97564.25;;;13.23;33.43
25610;BME280;13479;49.044;8.716;2024-03-25T15:30:07;97570.22;;;13.25;33.06
25610;BME280;13479;49.044;8.716;2024-03-25T15:32:32;97565.00;;;13.17;33.41
25610;BME280;13479;49.044;8.716;2024-03-25T15:34:58;97556.09;;;13.10;33.18
25610;BME280;13479;49.044;8.716;2024-03-25T15:37:23;97560.56;;;13.24;33.24
25610;BME280;13479;49.044;8.716;2024-03-25T15:39:49;97554.69;;;13.29;33.36
25610;BME280;13479;49.044;8.716;2024-03-25T15:42:15;97541.66;;;13.19;34.05
25610;BME280;13479;49.044;8.716;2024-03-25T15:44:40;97540.09;;;13.25;34.59
25610;BME280;13479;49.044;8.716;2024-03-25T15:47:05;97539.34;;;13.31;34.55
25610;BME280;13479;49.044;8.716;2024-03-25T15:49:31;97541.84;;;13.33;33.22
25610;BME280;13479;49.044;8.716;2024-03-25T15:51:57;97543.31;;;13.20;33.45
25610;BME280;13479;49.044;8.716;2024-03-25T15:54:22;97532.25;;;13.23;33.75
25610;BME280;13479;49.044;8.716;2024-03-25T15:56:47;97534.56;;;13.26;34.60
25610;BME280;13479;49.044;8.716;2024-03-25T15:59:13;97521.56;;;13.17;33.99
25610;BME280;13479;49.044;8.716;2024-03-25T16:01:40;97516.66;;;13.20;33.79
25610;BME280;13479;49.044;8.716;2024-03-25T16:04:05;97520.63;;;13.09;33.60
25610;BME280;13479;49.044;8.716;2024-03-25T16:06:30;97515.19;;;13.03;33.33
25610;BME280;13479;49.044;8.716;2024-03-25T16:08:56;97516.13;;;13.10;33.74
25610;BME280;13479;49.044;8.716;2024-03-25T16:11:21;97502.81;;;13.10;33.63
25610;BME280;13479;49.044;8.716;2024-03-25T16:13:46;97500.50;;;13.07;34.01
25610;BME280;13479;49.044;8.716;2024-03-25T16:16:14;97489.31;;;12.96;34.01
25610;BME280;13479;49.044;8.716;2024-03-25T16:18:39;97480.78;;;13.01;34.40
25610;BME280;13479;49.044;8.716;2024-03-25T16:21:17;97481.97;;;12.98;34.04
25610;BME280;13479;49.044;8.716;2024-03-25T16:23:47;97474.91;;;12.91;34.33
25610;BME280;13479;49.044;8.716;2024-03-25T16:26:12;97476.66;;;12.98;34.39
25610;BME280;13479;49.044;8.716;2024-03-25T16:28:38;97481.41;;;13.03;34.41
25610;BME280;13479;49.044;8.716;2024-03-25T16:31:04;97470.31;;;13.00;34.26
25610;BME280;13479;49.044;8.716;2024-03-25T16:33:29;97463.59;;;12.89;34.79
25610;BME280;13479;49.044;8.716;2024-03-25T16:35:55;97469.28;;;12.86;34.57
25610;BME280;13479;49.044;8.716;2024-03-25T16:38:20;97464.53;;;12.81;35.18
25610;BME280;13479;49.044;8.716;2024-03-25T16:40:45;97462.41;;;12.76;34.89
25610;BME280;13479;49.044;8.716;2024-03-25T16:43:10;97459.03;;;12.67;35.38